Ada, OH

6:58 AM EST on March 02, 2015 (GMT -0500)
Ada | Change Station
CLOSE
Current Station
Personal Weather Station
Location: Ada, OH
Elevation: 912 ft
Nearby Weather Stations
Active Advisory: Special Statement Active Notice: Record Report, Local Storm Report

Elev 912 ft 40.82 °N, 83.86 °W | Updated 8 seconds ago

Partly Cloudy
Partly Cloudy
13.1 °F
Feels Like 6 °F
N
4.0
Wind Variable Wind from West
Gusts 9.0 mph

Today
High -- | Low -- °F
--% Chance of Precip.
Yesterday
High -- | Low -- °F
Precip. -- in
7:07 AM 6:27 PM
Waxing Gibbous, 91% visible
Pressure 30.46 in
Visibility 4.0 miles
Clouds Clear
Windchill 6 °F
Dew Point 11 °F
Humidity 91%
Rainfall 0.00 in
Snow Depth Not available.
UV 0 out of 12
Pollen .40 out of 12
Air Quality Not available.
Flu Activity Not available.
METAR KAOH 021153Z AUTO 25008KT 4SM BR CLR M11/M13 A3041 RMK AO2 SLP315 70011 T11111133 11050 21111 51027 $

More Conditions Fewer Conditions

Pressure 30.46 in
Visibility 4.0 miles
Clouds Clear
Windchill 6 °F
Dew Point 11 °F
Humidity 91%
Rainfall 0.00 in
Snow Depth Not available.
UV 0 out of 12
Pollen .40 out of 12
Air Quality Not available.
Flu Activity Not available.
METAR KAOH 021153Z AUTO 25008KT 4SM BR CLR M11/M13 A3041 RMK AO2 SLP315 70011 T11111133 11050 21111 51027 $

More Conditions Fewer Conditions

10-Day Weather Forecast

Almanac

Astronomy

Mar. 02, 2015 Rise Set
Actual Time
Civil Twilight
Nautical Twilight
Astronomical Twilight
Moon
Length of Visible Light
Length of Day
Tomorrow will be .
, % of the Moon is Illuminated

Today's Extremes

State Highs State Lows

Community

WunderPhotos

Upload Photos

1,801,757 photos uploaded!

WunderBlogs® & News

Nearby

Air Quality

  Air Quality AQ Index Pollutant
Not available.

Snow Depth

Station Depth Elevation

Earthquake Activity

City Distance Mag. Time & Date
Minimum magnitude displayed is 2.5.

Coastal Water Temperatures

Place Temperature

Nearby Weather Stations

Special Statement
Statement as of 3:56 AM EST on March 02, 2015

... Icy roads likely this morning...

With temperatures below freezing any moisture on roadways and
sidewalks will freeze leading to icy conditions on untreated
surfaces. Please use extra caution if traveling this morning and
allow plenty of room between yourself and the car in front of you.